sensor_id;sensor_type;location;lat;lon;timestamp;pressure;altitude;pressure_sealevel;temperature;humidity
23321;BME280;33376;51.306;4.752;2023-01-26T00:02:11;103072.34;;;0.98;nan
23321;BME280;33376;51.306;4.752;2023-01-26T00:04:36;103069.41;;;0.83;nan
23321;BME280;33376;51.306;4.752;2023-01-26T00:07:02;103068.78;;;0.95;nan
23321;BME280;33376;51.306;4.752;2023-01-26T00:09:27;103061.56;;;0.82;nan
23321;BME280;33376;51.306;4.752;2023-01-26T00:11:52;103066.19;;;0.95;nan
23321;BME280;33376;51.306;4.752;2023-01-26T00:14:17;103064.09;;;0.79;nan
23321;BME280;33376;51.306;4.752;2023-01-26T00:16:43;103056.97;;;1.13;nan
23321;BME280;33376;51.306;4.752;2023-01-26T00:19:08;103056.41;;;0.86;nan
23321;BME280;33376;51.306;4.752;2023-01-26T00:21:33;103048.56;;;0.85;nan
23321;BME280;33376;51.306;4.752;2023-01-26T00:23:58;103046.84;;;0.85;nan
23321;BME280;33376;51.306;4.752;2023-01-26T00:26:24;103055.84;;;1.01;nan
23321;BME280;33376;51.306;4.752;2023-01-26T00:28:50;103049.56;;;0.91;nan
23321;BME280;33376;51.306;4.752;2023-01-26T00:31:17;103042.66;;;0.93;nan
23321;BME280;33376;51.306;4.752;2023-01-26T00:33:43;103043.47;;;0.91;nan
23321;BME280;33376;51.306;4.752;2023-01-26T00:36:08;103034.41;;;0.74;nan
23321;BME280;33376;51.306;4.752;2023-01-26T00:38:34;103046.00;;;0.88;nan
23321;BME280;33376;51.306;4.752;2023-01-26T00:40:59;103048.78;;;0.95;nan
23321;BME280;33376;51.306;4.752;2023-01-26T00:43:24;103051.41;;;0.95;nan
23321;BME280;33376;51.306;4.752;2023-01-26T00:45:50;103044.66;;;1.06;nan
23321;BME280;33376;51.306;4.752;2023-01-26T00:48:15;103039.34;;;1.02;nan
23321;BME280;33376;51.306;4.752;2023-01-26T00:50:40;103051.22;;;0.88;nan
23321;BME280;33376;51.306;4.752;2023-01-26T00:53:05;103046.97;;;0.93;nan
23321;BME280;33376;51.306;4.752;2023-01-26T00:55:31;103043.13;;;1.17;nan
23321;BME280;33376;51.306;4.752;2023-01-26T00:57:57;103042.72;;;0.98;nan
23321;BME280;33376;51.306;4.752;2023-01-26T01:00:22;103042.50;;;0.86;nan
23321;BME280;33376;51.306;4.752;2023-01-26T01:02:48;103040.06;;;0.95;nan
23321;BME280;33376;51.306;4.752;2023-01-26T01:05:13;103038.44;;;1.00;nan
23321;BME280;33376;51.306;4.752;2023-01-26T01:07:38;103037.41;;;0.92;nan
23321;BME280;33376;51.306;4.752;2023-01-26T01:10:04;103037.59;;;1.02;nan
23321;BME280;33376;51.306;4.752;2023-01-26T01:12:29;103034.50;;;0.78;nan
23321;BME280;33376;51.306;4.752;2023-01-26T01:14:54;103042.78;;;1.01;nan
23321;BME280;33376;51.306;4.752;2023-01-26T01:17:20;103040.59;;;0.79;nan
23321;BME280;33376;51.306;4.752;2023-01-26T01:19:45;103047.00;;;0.94;nan
23321;BME280;33376;51.306;4.752;2023-01-26T01:22:10;103049.59;;;0.93;nan
23321;BME280;33376;51.306;4.752;2023-01-26T01:24:35;103045.16;;;0.89;nan
23321;BME280;33376;51.306;4.752;2023-01-26T01:27:01;103055.81;;;0.99;nan
23321;BME280;33376;51.306;4.752;2023-01-26T01:29:27;103053.31;;;1.05;nan
23321;BME280;33376;51.306;4.752;2023-01-26T01:31:52;103061.00;;;0.98;nan
23321;BME280;33376;51.306;4.752;2023-01-26T01:34:17;103069.22;;;1.16;nan
23321;BME280;33376;51.306;4.752;2023-01-26T01:36:42;103062.47;;;0.84;nan
23321;BME280;33376;51.306;4.752;2023-01-26T01:39:08;103066.97;;;0.89;nan
23321;BME280;33376;51.306;4.752;2023-01-26T01:41:33;103066.91;;;0.88;nan
23321;BME280;33376;51.306;4.752;2023-01-26T01:47:05;103064.09;;;0.79;nan
23321;BME280;33376;51.306;4.752;2023-01-26T01:49:35;103069.31;;;0.79;nan
23321;BME280;33376;51.306;4.752;2023-01-26T01:54:37;103078.94;;;0.80;nan
23321;BME280;33376;51.306;4.752;2023-01-26T01:57:05;103076.81;;;1.04;nan
23321;BME280;33376;51.306;4.752;2023-01-26T01:59:39;103066.91;;;0.88;nan
23321;BME280;33376;51.306;4.752;2023-01-26T02:02:04;103071.47;;;0.98;nan
23321;BME280;33376;51.306;4.752;2023-01-26T02:04:30;103076.03;;;1.08;nan
23321;BME280;33376;51.306;4.752;2023-01-26T02:06:56;103065.31;;;0.96;nan
23321;BME280;33376;51.306;4.752;2023-01-26T02:09:27;103068.97;;;1.04;nan
23321;BME280;33376;51.306;4.752;2023-01-26T02:12:13;103054.78;;;0.91;nan
23321;BME280;33376;51.306;4.752;2023-01-26T02:14:39;103069.81;;;1.03;nan
23321;BME280;33376;51.306;4.752;2023-01-26T02:17:05;103069.25;;;1.17;nan
23321;BME280;33376;51.306;4.752;2023-01-26T02:22:10;103057.44;;;0.94;nan
23321;BME280;33376;51.306;4.752;2023-01-26T02:24:39;103056.56;;;0.92;nan
23321;BME280;33376;51.306;4.752;2023-01-26T02:27:04;103067.34;;;1.10;nan
23321;BME280;33376;51.306;4.752;2023-01-26T02:29:30;103060.13;;;0.97;nan
23321;BME280;33376;51.306;4.752;2023-01-26T02:31:55;103068.91;;;1.01;nan
23321;BME280;33376;51.306;4.752;2023-01-26T02:34:21;103077.06;;;1.16;nan
23321;BME280;33376;51.306;4.752;2023-01-26T02:36:58;103068.97;;;1.04;nan
23321;BME280;33376;51.306;4.752;2023-01-26T02:39:27;103068.78;;;0.95;nan
23321;BME280;33376;51.306;4.752;2023-01-26T02:41:58;103064.41;;;0.92;nan
23321;BME280;33376;51.306;4.752;2023-01-26T02:44:42;103053.38;;;1.07;nan
23321;BME280;33376;51.306;4.752;2023-01-26T02:47:11;103059.50;;;1.10;nan
23321;BME280;33376;51.306;4.752;2023-01-26T02:49:37;103064.00;;;1.16;nan
23321;BME280;33376;51.306;4.752;2023-01-26T02:52:12;103059.91;;;1.30;nan
23321;BME280;33376;51.306;4.752;2023-01-26T02:54:38;103059.75;;;1.21;nan
23321;BME280;33376;51.306;4.752;2023-01-26T02:57:22;103047.31;;;1.09;nan
23321;BME280;33376;51.306;4.752;2023-01-26T02:59:47;103057.81;;;1.12;nan
23321;BME280;33376;51.306;4.752;2023-01-26T03:02:12;103056.06;;;1.11;nan
23321;BME280;33376;51.306;4.752;2023-01-26T03:04:37;103062.97;;;1.08;nan
23321;BME280;33376;51.306;4.752;2023-01-26T03:07:03;103067.56;;;1.19;nan
23321;BME280;33376;51.306;4.752;2023-01-26T03:09:28;103076.28;;;1.21;nan
23321;BME280;33376;51.306;4.752;2023-01-26T03:11:53;103078.63;;;1.08;nan
23321;BME280;33376;51.306;4.752;2023-01-26T03:14:18;103078.63;;;1.08;nan
23321;BME280;33376;51.306;4.752;2023-01-26T03:16:44;103070.78;;;1.06;nan
23321;BME280;33376;51.306;4.752;2023-01-26T03:19:13;103079.63;;;1.14;nan
23321;BME280;33376;51.306;4.752;2023-01-26T03:21:58;103056.16;;;1.16;nan
23321;BME280;33376;51.306;4.752;2023-01-26T03:24:42;103052.47;;;1.05;nan
23321;BME280;33376;51.306;4.752;2023-01-26T03:27:26;103051.63;;;1.07;nan
23321;BME280;33376;51.306;4.752;2023-01-26T03:29:52;103056.03;;;1.08;nan
23321;BME280;33376;51.306;4.752;2023-01-26T03:32:17;103055.03;;;1.03;nan
23321;BME280;33376;51.306;4.752;2023-01-26T03:34:42;103062.16;;;1.12;nan
23321;BME280;33376;51.306;4.752;2023-01-26T03:37:08;103071.16;;;1.26;nan
23321;BME280;33376;51.306;4.752;2023-01-26T03:39:33;103065.81;;;1.21;nan
23321;BME280;33376;51.306;4.752;2023-01-26T03:42:17;103048.25;;;1.13;nan
23321;BME280;33376;51.306;4.752;2023-01-26T03:45:01;103056.06;;;1.10;nan
23321;BME280;33376;51.306;4.752;2023-01-26T03:47:44;103052.63;;;1.14;nan
23321;BME280;33376;51.306;4.752;2023-01-26T03:50:28;103064.81;;;1.15;nan
23321;BME280;33376;51.306;4.752;2023-01-26T03:53:13;103062.31;;;1.19;nan
23321;BME280;33376;51.306;4.752;2023-01-26T03:55:57;103064.16;;;1.25;nan
23321;BME280;33376;51.306;4.752;2023-01-26T03:58:41;103057.97;;;1.20;nan
23321;BME280;33376;51.306;4.752;2023-01-26T04:01:06;103065.84;;;1.23;nan
23321;BME280;33376;51.306;4.752;2023-01-26T04:03:34;103064.91;;;1.18;nan
23321;BME280;33376;51.306;4.752;2023-01-26T04:06:19;103073.66;;;1.21;nan
23321;BME280;33376;51.306;4.752;2023-01-26T04:09:02;103072.75;;;1.18;nan
23321;BME280;33376;51.306;4.752;2023-01-26T04:11:27;103076.19;;;1.17;nan
23321;BME280;33376;51.306;4.752;2023-01-26T04:13:53;103077.13;;;1.19;nan
23321;BME280;33376;51.306;4.752;2023-01-26T04:16:36;103072.91;;;1.27;nan
23321;BME280;33376;51.306;4.752;2023-01-26T04:19:21;103074.72;;;1.31;nan
23321;BME280;33376;51.306;4.752;2023-01-26T04:22:04;103079.16;;;1.35;nan
23321;BME280;33376;51.306;4.752;2023-01-26T04:24:30;103074.75;;;1.32;nan
23321;BME280;33376;51.306;4.752;2023-01-26T04:26:55;103079.97;;;1.32;nan
23321;BME280;33376;51.306;4.752;2023-01-26T04:29:20;103084.38;;;1.35;nan
23321;BME280;33376;51.306;4.752;2023-01-26T04:31:45;103087.00;;;1.35;nan
23321;BME280;33376;51.306;4.752;2023-01-26T04:34:12;103086.94;;;1.32;nan
23321;BME280;33376;51.306;4.752;2023-01-26T04:36:39;103081.81;;;1.38;nan
23321;BME280;33376;51.306;4.752;2023-01-26T04:39:08;103085.31;;;1.37;nan
23321;BME280;33376;51.306;4.752;2023-01-26T04:41:35;103088.78;;;1.37;nan
23321;BME280;33376;51.306;4.752;2023-01-26T04:44:01;103084.56;;;1.45;nan
23321;BME280;33376;51.306;4.752;2023-01-26T04:46:26;103083.78;;;1.48;nan
23321;BME280;33376;51.306;4.752;2023-01-26T04:48:52;103083.00;;;1.55;nan
23321;BME280;33376;51.306;4.752;2023-01-26T04:51:21;103081.84;;;1.39;nan
23321;BME280;33376;51.306;4.752;2023-01-26T04:53:47;103080.91;;;1.36;nan
23321;BME280;33376;51.306;4.752;2023-01-26T04:56:21;103071.31;;;1.33;nan
23321;BME280;33376;51.306;4.752;2023-01-26T04:58:46;103079.97;;;1.32;nan
23321;BME280;33376;51.306;4.752;2023-01-26T05:01:12;103091.31;;;1.33;nan
23321;BME280;33376;51.306;4.752;2023-01-26T05:03:37;103089.50;;;1.29;nan
23321;BME280;33376;51.306;4.752;2023-01-26T05:06:02;103093.94;;;1.34;nan
23321;BME280;33376;51.306;4.752;2023-01-26T05:08:27;103093.13;;;1.35;nan
23321;BME280;33376;51.306;4.752;2023-01-26T05:10:53;103098.44;;;1.40;nan
23321;BME280;33376;51.306;4.752;2023-01-26T05:13:21;103093.13;;;1.35;nan
23321;BME280;33376;51.306;4.752;2023-01-26T05:15:46;103102.72;;;1.36;nan
23321;BME280;33376;51.306;4.752;2023-01-26T05:18:11;103101.25;;;1.52;nan
23321;BME280;33376;51.306;4.752;2023-01-26T05:20:37;103102.94;;;1.48;nan
23321;BME280;33376;51.306;4.752;2023-01-26T05:23:02;103103.63;;;1.38;nan
23321;BME280;33376;51.306;4.752;2023-01-26T05:25:27;103118.63;;;1.50;nan
23321;BME280;33376;51.306;4.752;2023-01-26T05:27:53;103133.31;;;1.42;nan
23321;BME280;33376;51.306;4.752;2023-01-26T05:30:19;103136.78;;;1.42;nan
23321;BME280;33376;51.306;4.752;2023-01-26T05:32:44;103140.00;;;1.28;nan
23321;BME280;33376;51.306;4.752;2023-01-26T05:35:10;103136.59;;;1.32;nan
23321;BME280;33376;51.306;4.752;2023-01-26T05:37:35;103147.22;;;1.41;nan
23321;BME280;33376;51.306;4.752;2023-01-26T05:40:01;103147.38;;;1.48;nan
23321;BME280;33376;51.306;4.752;2023-01-26T05:42:26;103160.56;;;1.55;nan
23321;BME280;33376;51.306;4.752;2023-01-26T05:44:52;103154.31;;;1.46;nan
23321;BME280;33376;51.306;4.752;2023-01-26T05:47:17;103153.38;;;1.43;nan
23321;BME280;33376;51.306;4.752;2023-01-26T05:49:42;103152.50;;;1.44;nan
23321;BME280;33376;51.306;4.752;2023-01-26T05:52:14;103163.84;;;1.44;nan
23321;BME280;33376;51.306;4.752;2023-01-26T05:54:40;103162.13;;;1.45;nan
23321;BME280;33376;51.306;4.752;2023-01-26T05:57:05;103171.03;;;1.55;nan
23321;BME280;33376;51.306;4.752;2023-01-26T05:59:31;103179.72;;;1.53;nan
23321;BME280;33376;51.306;4.752;2023-01-26T06:01:56;103172.63;;;1.46;nan
23321;BME280;33376;51.306;4.752;2023-01-26T06:04:21;103179.59;;;1.47;nan
23321;BME280;33376;51.306;4.752;2023-01-26T06:06:47;103186.03;;;1.66;nan
23321;BME280;33376;51.306;4.752;2023-01-26T06:09:12;103184.97;;;1.55;nan
23321;BME280;33376;51.306;4.752;2023-01-26T06:11:37;103188.66;;;1.66;nan
23321;BME280;33376;51.306;4.752;2023-01-26T06:14:02;103194.59;;;1.56;nan
23321;BME280;33376;51.306;4.752;2023-01-26T06:16:28;103190.75;;;1.40;nan
23321;BME280;33376;51.306;4.752;2023-01-26T06:18:53;59698.91;;;-141.08;100.00
23321;BME280;33376;51.306;4.752;2023-01-26T06:23:43;59698.91;;;-141.08;100.00
23321;BME280;33376;51.306;4.752;2023-01-26T06:26:09;59698.91;;;-141.08;100.00
23321;BME280;33376;51.306;4.752;2023-01-26T06:28:34;59698.91;;;-141.08;100.00
23321;BME280;33376;51.306;4.752;2023-01-26T06:31:03;59698.91;;;-141.08;100.00
23321;BME280;33376;51.306;4.752;2023-01-26T06:33:30;59698.91;;;-141.08;100.00
23321;BME280;33376;51.306;4.752;2023-01-26T06:35:55;103147.78;;;1.26;nan
23321;BME280;33376;51.306;4.752;2023-01-26T06:38:22;103227.16;;;1.30;nan
23321;BME280;33376;51.306;4.752;2023-01-26T06:40:48;103227.13;;;1.28;nan
23321;BME280;33376;51.306;4.752;2023-01-26T06:43:15;103224.75;;;1.40;nan
23321;BME280;33376;51.306;4.752;2023-01-26T06:45:40;103226.66;;;1.47;nan
23321;BME280;33376;51.306;4.752;2023-01-26T06:48:06;103225.53;;;1.36;nan
23321;BME280;33376;51.306;4.752;2023-01-26T06:53:02;103227.41;;;1.42;nan
23321;BME280;33376;51.306;4.752;2023-01-26T06:55:34;103222.09;;;1.39;nan
23321;BME280;33376;51.306;4.752;2023-01-26T06:58:00;103213.38;;;1.37;nan
23321;BME280;33376;51.306;4.752;2023-01-26T07:00:25;103218.47;;;1.32;nan
23321;BME280;33376;51.306;4.752;2023-01-26T07:02:50;103221.88;;;1.28;nan
23321;BME280;33376;51.306;4.752;2023-01-26T07:05:16;103219.31;;;1.30;nan
23321;BME280;33376;51.306;4.752;2023-01-26T07:07:41;103220.19;;;1.30;nan
23321;BME280;33376;51.306;4.752;2023-01-26T07:10:07;103223.69;;;1.32;nan
23321;BME280;33376;51.306;4.752;2023-01-26T07:12:39;103220.16;;;1.29;nan
23321;BME280;33376;51.306;4.752;2023-01-26T07:15:04;103216.69;;;1.30;nan
23321;BME280;33376;51.306;4.752;2023-01-26T07:17:30;103225.44;;;1.30;nan
23321;BME280;33376;51.306;4.752;2023-01-26T07:19:55;103221.06;;;1.31;nan
23321;BME280;33376;51.306;4.752;2023-01-26T07:22:20;103228.06;;;1.32;nan
23321;BME280;33376;51.306;4.752;2023-01-26T07:24:46;103228.84;;;1.28;nan
23321;BME280;33376;51.306;4.752;2023-01-26T07:27:11;103237.66;;;1.33;nan
23321;BME280;33376;51.306;4.752;2023-01-26T07:29:36;103236.84;;;1.34;nan
23321;BME280;33376;51.306;4.752;2023-01-26T07:32:01;103242.81;;;1.30;nan
23321;BME280;33376;51.306;4.752;2023-01-26T07:34:26;103244.53;;;1.29;nan
23321;BME280;33376;51.306;4.752;2023-01-26T07:36:52;103247.31;;;1.35;nan
23321;BME280;33376;51.306;4.752;2023-01-26T07:39:17;103254.31;;;1.38;nan
23321;BME280;33376;51.306;4.752;2023-01-26T07:41:42;103252.59;;;1.38;nan
23321;BME280;33376;51.306;4.752;2023-01-26T07:44:08;103259.59;;;1.39;nan
23321;BME280;33376;51.306;4.752;2023-01-26T07:46:33;103263.94;;;1.40;nan
23321;BME280;33376;51.306;4.752;2023-01-26T07:48:59;103271.00;;;1.43;nan
23321;BME280;33376;51.306;4.752;2023-01-26T07:51:24;103273.63;;;1.44;nan
23321;BME280;33376;51.306;4.752;2023-01-26T07:53:49;103277.97;;;1.44;nan
23321;BME280;33376;51.306;4.752;2023-01-26T07:56:15;103278.97;;;1.49;nan
23321;BME280;33376;51.306;4.752;2023-01-26T07:58:41;103280.66;;;1.47;nan
23321;BME280;33376;51.306;4.752;2023-01-26T08:01:07;103288.50;;;1.47;nan
23321;BME280;33376;51.306;4.752;2023-01-26T08:03:32;103295.28;;;1.39;nan
23321;BME280;33376;51.306;4.752;2023-01-26T08:05:58;103307.66;;;1.46;nan
23321;BME280;33376;51.306;4.752;2023-01-26T08:08:23;103303.34;;;1.48;nan
23321;BME280;33376;51.306;4.752;2023-01-26T08:10:48;103316.34;;;1.45;nan
23321;BME280;33376;51.306;4.752;2023-01-26T08:13:13;103311.13;;;1.45;nan
23321;BME280;33376;51.306;4.752;2023-01-26T08:15:39;103320.78;;;1.49;nan
23321;BME280;33376;51.306;4.752;2023-01-26T08:18:04;103326.97;;;1.52;nan
23321;BME280;33376;51.306;4.752;2023-01-26T08:20:30;103322.66;;;1.55;nan
23321;BME280;33376;51.306;4.752;2023-01-26T08:22:55;103342.72;;;1.56;nan
23321;BME280;33376;51.306;4.752;2023-01-26T08:25:21;103351.53;;;1.59;nan
23321;BME280;33376;51.306;4.752;2023-01-26T08:27:46;103359.41;;;1.61;nan
23321;BME280;33376;51.306;4.752;2023-01-26T08:30:11;103346.97;;;1.50;nan
23321;BME280;33376;51.306;4.752;2023-01-26T08:32:37;103357.78;;;1.66;nan
23321;BME280;33376;51.306;4.752;2023-01-26T08:35:02;103362.91;;;1.61;nan
23321;BME280;33376;51.306;4.752;2023-01-26T08:37:27;103370.88;;;1.67;nan
23321;BME280;33376;51.306;4.752;2023-01-26T08:39:52;103384.97;;;1.74;nan
23321;BME280;33376;51.306;4.752;2023-01-26T08:42:18;103389.31;;;1.73;nan
23321;BME280;33376;51.306;4.752;2023-01-26T08:44:43;103392.16;;;1.84;nan
23321;BME280;33376;51.306;4.752;2023-01-26T08:47:08;103395.59;;;1.81;nan
23321;BME280;33376;51.306;4.752;2023-01-26T08:49:33;103389.50;;;1.82;nan
23321;BME280;33376;51.306;4.752;2023-01-26T08:51:59;103408.75;;;1.86;nan
23321;BME280;33376;51.306;4.752;2023-01-26T08:54:24;103410.63;;;1.90;nan
23321;BME280;33376;51.306;4.752;2023-01-26T08:56:49;103410.63;;;1.90;nan
23321;BME280;33376;51.306;4.752;2023-01-26T08:59:14;103420.25;;;1.92;nan
23321;BME280;33376;51.306;4.752;2023-01-26T09:01:39;103413.44;;;2.00;nan
23321;BME280;33376;51.306;4.752;2023-01-26T09:04:05;103418.63;;;1.97;nan
23321;BME280;33376;51.306;4.752;2023-01-26T09:06:30;103429.09;;;1.97;nan
23321;BME280;33376;51.306;4.752;2023-01-26T09:08:57;103428.16;;;1.95;nan
23321;BME280;33376;51.306;4.752;2023-01-26T09:11:22;103438.72;;;2.00;nan
23321;BME280;33376;51.306;4.752;2023-01-26T09:13:50;103444.78;;;1.97;nan
23321;BME280;33376;51.306;4.752;2023-01-26T09:16:20;103442.25;;;2.02;nan
23321;BME280;33376;51.306;4.752;2023-01-26T09:18:48;103444.00;;;2.03;nan
23321;BME280;33376;51.306;4.752;2023-01-26T09:21:13;103424.88;;;2.04;nan
23321;BME280;33376;51.306;4.752;2023-01-26T09:23:38;103431.06;;;2.07;nan
23321;BME280;33376;51.306;4.752;2023-01-26T09:26:03;103426.84;;;2.14;nan
23321;BME280;33376;51.306;4.752;2023-01-26T09:28:29;103415.53;;;2.16;nan
23321;BME280;33376;51.306;4.752;2023-01-26T09:30:54;103403.38;;;2.18;nan
23321;BME280;33376;51.306;4.752;2023-01-26T09:33:19;103407.94;;;2.30;nan
23321;BME280;33376;51.306;4.752;2023-01-26T09:35:49;103414.31;;;2.41;nan
23321;BME280;33376;51.306;4.752;2023-01-26T09:38:14;103411.03;;;2.54;nan
23321;BME280;33376;51.306;4.752;2023-01-26T09:43:37;103419.00;;;2.57;nan
23321;BME280;33376;51.306;4.752;2023-01-26T09:46:24;103412.06;;;2.60;nan
23321;BME280;33376;51.306;4.752;2023-01-26T09:53:52;103426.53;;;2.86;nan
23321;BME280;33376;51.306;4.752;2023-01-26T09:56:19;103427.41;;;2.87;nan
23321;BME280;33376;51.306;4.752;2023-01-26T09:58:46;103436.34;;;2.98;nan
23321;BME280;33376;51.306;4.752;2023-01-26T10:01:19;103438.06;;;2.97;nan
23321;BME280;33376;51.306;4.752;2023-01-26T10:03:47;103453.91;;;3.03;nan
23321;BME280;33376;51.306;4.752;2023-01-26T10:06:21;103456.78;;;3.17;nan
23321;BME280;33376;51.306;4.752;2023-01-26T10:08:50;103428.09;;;3.26;nan
23321;BME280;33376;51.306;4.752;2023-01-26T10:11:20;103450.50;;;3.61;nan
23321;BME280;33376;51.306;4.752;2023-01-26T10:13:52;103454.88;;;3.62;nan
23321;BME280;33376;51.306;4.752;2023-01-26T10:16:19;103460.97;;;3.60;nan
23321;BME280;33376;51.306;4.752;2023-01-26T10:18:56;103465.53;;;3.71;nan
23321;BME280;33376;51.306;4.752;2023-01-26T10:21:24;103463.84;;;3.73;nan
23321;BME280;33376;51.306;4.752;2023-01-26T10:23:50;103478.78;;;3.80;nan
23321;BME280;33376;51.306;4.752;2023-01-26T10:26:17;103496.41;;;3.87;nan
23321;BME280;33376;51.306;4.752;2023-01-26T10:28:43;103502.75;;;4.01;nan
23321;BME280;33376;51.306;4.752;2023-01-26T10:31:15;103517.72;;;4.08;nan
23321;BME280;33376;51.306;4.752;2023-01-26T10:34:23;103500.41;;;4.21;nan
23321;BME280;33376;51.306;4.752;2023-01-26T10:36:29;103516.34;;;4.36;nan
23321;BME280;33376;51.306;4.752;2023-01-26T10:39:01;103528.84;;;4.52;nan
23321;BME280;33376;51.306;4.752;2023-01-26T10:41:27;103538.63;;;4.65;nan
23321;BME280;33376;51.306;4.752;2023-01-26T10:43:54;103544.81;;;4.69;nan
23321;BME280;33376;51.306;4.752;2023-01-26T10:48:52;103546.72;;;4.79;nan
23321;BME280;33376;51.306;4.752;2023-01-26T10:51:21;103555.59;;;4.88;nan
23321;BME280;33376;51.306;4.752;2023-01-26T10:53:47;103549.53;;;4.97;nan
23321;BME280;33376;51.306;4.752;2023-01-26T10:56:12;103565.34;;;5.01;nan
23321;BME280;33376;51.306;4.752;2023-01-26T10:58:51;103567.22;;;5.10;nan
23321;BME280;33376;51.306;4.752;2023-01-26T11:01:18;103567.34;;;5.22;nan
23321;BME280;33376;51.306;4.752;2023-01-26T11:03:58;103566.63;;;5.36;nan
23321;BME280;33376;51.306;4.752;2023-01-26T11:06:26;103582.50;;;5.42;nan
23321;BME280;33376;51.306;4.752;2023-01-26T11:08:52;103586.13;;;5.56;nan
23321;BME280;33376;51.306;4.752;2023-01-26T11:11:26;103594.03;;;5.56;nan
23321;BME280;33376;51.306;4.752;2023-01-26T11:14:10;103593.19;;;5.60;nan
23321;BME280;33376;51.306;4.752;2023-01-26T11:16:39;103595.97;;;5.77;nan
23321;BME280;33376;51.306;4.752;2023-01-26T11:19:12;103611.03;;;5.85;nan
23321;BME280;33376;51.306;4.752;2023-01-26T11:21:45;103607.59;;;5.97;nan
23321;BME280;33376;51.306;4.752;2023-01-26T11:24:15;103610.38;;;6.14;nan
23321;BME280;33376;51.306;4.752;2023-01-26T11:34:32;103625.50;;;6.40;nan
23321;BME280;33376;51.306;4.752;2023-01-26T11:39:48;103613.25;;;6.53;nan
23321;BME280;33376;51.306;4.752;2023-01-26T11:42:21;103601.00;;;6.58;nan
23321;BME280;33376;51.306;4.752;2023-01-26T11:44:53;103609.84;;;6.66;nan
23321;BME280;33376;51.306;4.752;2023-01-26T11:47:27;103604.56;;;6.67;nan
23321;BME280;33376;51.306;4.752;2023-01-26T11:52:32;103586.19;;;6.76;nan
23321;BME280;33376;51.306;4.752;2023-01-26T11:55:12;103585.28;;;6.77;nan
23321;BME280;33376;51.306;4.752;2023-01-26T11:57:54;103563.31;;;6.81;nan
23321;BME280;33376;51.306;4.752;2023-01-26T12:00:21;103596.72;;;6.79;nan
23321;BME280;33376;51.306;4.752;2023-01-26T12:03:03;103604.66;;;6.82;nan
23321;BME280;33376;51.306;4.752;2023-01-26T12:05:45;103611.66;;;6.80;nan
23321;BME280;33376;51.306;4.752;2023-01-26T12:08:34;103604.72;;;6.97;nan
23321;BME280;33376;51.306;4.752;2023-01-26T12:11:04;103594.22;;;7.03;nan
23321;BME280;33376;51.306;4.752;2023-01-26T12:14:00;103584.53;;;7.07;nan
23321;BME280;33376;51.306;4.752;2023-01-26T12:16:31;103486.94;;;7.20;nan
23321;BME280;33376;51.306;4.752;2023-01-26T12:19:10;103480.81;;;7.30;nan
23321;BME280;33376;51.306;4.752;2023-01-26T12:21:37;103440.31;;;7.15;nan
23321;BME280;33376;51.306;4.752;2023-01-26T12:24:07;103434.16;;;7.20;nan
23321;BME280;33376;51.306;4.752;2023-01-26T12:26:38;103413.91;;;7.40;nan
23321;BME280;33376;51.306;4.752;2023-01-26T12:29:10;103391.94;;;7.51;nan
23321;BME280;33376;51.306;4.752;2023-01-26T12:31:42;103362.88;;;7.55;nan
23321;BME280;33376;51.306;4.752;2023-01-26T12:34:11;103325.94;;;7.46;nan
23321;BME280;33376;51.306;4.752;2023-01-26T12:39:23;103233.56;;;7.46;nan
23321;BME280;33376;51.306;4.752;2023-01-26T12:42:05;103200.06;;;7.57;nan
23321;BME280;33376;51.306;4.752;2023-01-26T12:44:40;103147.22;;;7.62;nan
23321;BME280;33376;51.306;4.752;2023-01-26T12:47:08;103097.00;;;7.72;nan
23321;BME280;33376;51.306;4.752;2023-01-26T12:52:23;102974.72;;;7.67;nan
23321;BME280;33376;51.306;4.752;2023-01-26T12:57:35;102878.72;;;7.71;nan
23321;BME280;33376;51.306;4.752;2023-01-26T13:00:04;102829.47;;;7.69;nan
23321;BME280;33376;51.306;4.752;2023-01-26T13:02:32;102796.06;;;7.63;nan
23321;BME280;33376;51.306;4.752;2023-01-26T13:05:00;102766.88;;;7.77;nan
23321;BME280;33376;51.306;4.752;2023-01-26T13:07:28;102733.59;;;7.64;nan
23321;BME280;33376;51.306;4.752;2023-01-26T13:12:50;102692.13;;;7.73;nan
23321;BME280;33376;51.306;4.752;2023-01-26T13:15:17;102670.75;;;7.88;nan
23321;BME280;33376;51.306;4.752;2023-01-26T13:17:50;102644.63;;;7.70;nan
23321;BME280;33376;51.306;4.752;2023-01-26T13:20:27;102616.59;;;7.62;nan
23321;BME280;33376;51.306;4.752;2023-01-26T13:22:54;102599.81;;;7.66;nan
23321;BME280;33376;51.306;4.752;2023-01-26T13:27:55;102575.09;;;7.70;nan
23321;BME280;33376;51.306;4.752;2023-01-26T13:35:11;102549.50;;;7.75;nan
23321;BME280;33376;51.306;4.752;2023-01-26T13:40:30;102501.00;;;7.79;nan
23321;BME280;33376;51.306;4.752;2023-01-26T13:47:55;102477.31;;;7.76;nan
23321;BME280;33376;51.306;4.752;2023-01-26T13:50:27;102454.63;;;7.66;nan
23321;BME280;33376;51.306;4.752;2023-01-26T13:52:53;102437.00;;;7.66;nan
23321;BME280;33376;51.306;4.752;2023-01-26T13:55:23;102423.78;;;7.66;nan
23321;BME280;33376;51.306;4.752;2023-01-26T13:57:49;102408.81;;;7.68;nan
23321;BME280;33376;51.306;4.752;2023-01-26T14:00:33;102402.53;;;7.75;nan
23321;BME280;33376;51.306;4.752;2023-01-26T14:02:58;102404.94;;;7.87;nan
23321;BME280;33376;51.306;4.752;2023-01-26T14:05:24;102396.38;;;7.75;nan
23321;BME280;33376;51.306;4.752;2023-01-26T14:07:49;102404.25;;;7.76;nan
23321;BME280;33376;51.306;4.752;2023-01-26T14:10:17;102405.25;;;7.69;nan
23321;BME280;33376;51.306;4.752;2023-01-26T14:12:48;102397.53;;;7.59;nan
23321;BME280;33376;51.306;4.752;2023-01-26T14:15:21;102392.38;;;7.53;nan
23321;BME280;33376;51.306;4.752;2023-01-26T14:17:48;102398.38;;;7.62;nan
23321;BME280;33376;51.306;4.752;2023-01-26T14:20:23;102386.72;;;7.74;nan
23321;BME280;33376;51.306;4.752;2023-01-26T14:25:27;102386.63;;;7.78;nan
23321;BME280;33376;51.306;4.752;2023-01-26T14:27:52;102391.00;;;7.79;nan
23321;BME280;33376;51.306;4.752;2023-01-26T14:30:33;102391.88;;;7.80;nan
23321;BME280;33376;51.306;4.752;2023-01-26T14:33:11;102378.59;;;7.84;nan